SLSA/SBL METAR and TAF weather

Enter ICAO airport designator
Station Type Date Time Source
SLSA METAR 2020/03/30 19:00 UTC NOAA

SLSA 301900Z 00000KT 9999 BKN017 BKN200 33/25 Q1008


Station Type Date Time Source
SLSA Decoded METAR 2020/03/30 19:00 UTC NOAA

Santa Ana, Bolivia (SLSA) 13-46S 065-26W
Mar 30, 2020 - 03:00 PM EDT / 2020.03.30 1900 UTC
Wind: Calm:0
Visibility: greater than 7 mile(s):0
Sky conditions: mostly cloudy
Temperature: 91 F (33 C)
Heat index: 103.5 F (39.7 C):1
Dew Point: 77 F (25 C)
Relative Humidity: 62%
Pressure (altimeter): 29.77 in. Hg (1008 hPa)
ob: SLSA 301900Z 00000KT 9999 BKN017 BKN200 33/25 Q1008
cycle: 19

Station Type Date Time Source
SLSA TAF 2009/01/07 11:00 UTC NOAA

METAR SLSA 071100Z 00000KT 9999 FEW020 BKN080 26/24 Q1009

Example: see airport list